^^
Saratoga-Weather Station Historical Data
Daily Summary for June 30, 2022 Units:  Metric    English   Both
Daily Weekly Monthly Yearly Custom
  High: Low: Average:
Temperature: 28.2 °C 13.2 °C 18.9 °C
Dew Point: 17.8 °C 11.7 °C 14 °C
Humidity: 92% 47% 75%
Wind Speed: 33.8km/h 0km/h 4.5km/h
Wind Gust: 46.7km/h - -
Wind- - West
Pressure: 1015.9 hPa 1007.8 hPa -
Precipitation: 2.0 mm    
Historical Graphs
 
 
Tabular Data for June 30, 2022
Time Temperature Dew Point Pressure Wind Wind Speed Wind Gust Humidity Rainfall Rate (Hourly) solar
00:02 19.1 °C 13.7 °C 1010.8 hPa Calm     71% 0.0 mm 0 W/m2
00:07 18.9 °C 13.5 °C 1010.8 hPa Calm     71% 0.0 mm 0 W/m2
00:12 18.8 °C 13.6 °C 1010.8 hPa Calm     72% 0.0 mm 0 W/m2
00:17 18.8 °C 13.6 °C 1010.8 hPa Calm     72% 0.0 mm 0 W/m2
00:22 18.7 °C 13.5 °C 1010.8 hPa Calm     72% 0.0 mm 0 W/m2
00:27 18.6 °C 13.2 °C 1010.8 hPa Calm     71% 0.0 mm 0 W/m2
00:32 18.6 °C 13.5 °C 1010.8 hPa Calm     72% 0.0 mm 0 W/m2
00:37 18.4 °C 13.3 °C 1010.8 hPa Calm     72% 0.0 mm 0 W/m2
00:42 18.4 °C 13.5 °C 1010.8 hPa Calm     73% 0.0 mm 0 W/m2
00:47 18.3 °C 13.4 °C 1010.8 hPa Calm     73% 0.0 mm 0 W/m2
00:52 18.3 °C 13.4 °C 1010.8 hPa Calm     73% 0.0 mm 0 W/m2
00:57 18.3 °C 13.4 °C 1010.8 hPa Calm     73% 0.0 mm 0 W/m2
01:02 18.2 °C 13.3 °C 1010.8 hPa Calm     73% 0.0 mm 0 W/m2
01:07 18.1 °C 13.2 °C 1010.8 hPa Calm     73% 0.0 mm 0 W/m2
01:12 18.1 °C 13.4 °C 1010.8 hPa Calm     74% 0.0 mm 0 W/m2
01:17 18 °C 13.3 °C 1010.5 hPa Calm     74% 0.0 mm 0 W/m2
01:22 17.9 °C 13.4 °C 1010.5 hPa Calm     75% 0.0 mm 0 W/m2
01:27 17.8 °C 13.3 °C 1010.5 hPa Calm     75% 0.0 mm 0 W/m2
01:32 17.7 °C 13.4 °C 1010.5 hPa Calm     76% 0.0 mm 0 W/m2
01:37 17.6 °C 13.3 °C 1010.5 hPa Calm     76% 0.0 mm 0 W/m2
01:42 17.4 °C 13.1 °C 1010.5 hPa Calm     76% 0.0 mm 0 W/m2
01:47 17.3 °C 13.2 °C 1010.5 hPa Calm     77% 0.0 mm 0 W/m2
01:52 17.2 °C 13.1 °C 1010.5 hPa Calm     77% 0.0 mm 0 W/m2
01:57 17.1 °C 13 °C 1010.5 hPa Calm     77% 0.0 mm 0 W/m2
02:02 17.1 °C 13 °C 1010.5 hPa Calm     77% 0.0 mm 0 W/m2
02:07 17.1 °C 13.2 °C 1010.5 hPa Calm     78% 0.0 mm 0 W/m2
02:12 17.1 °C 13.2 °C 1010.5 hPa Calm     78% 0.0 mm 0 W/m2
02:17 17 °C 13.1 °C 1010.5 hPa Calm     78% 0.0 mm 0 W/m2
02:22 16.9 °C 13 °C 1010.5 hPa Calm     78% 0.0 mm 0 W/m2
02:27 16.8 °C 13.1 °C 1010.5 hPa Calm     79% 0.0 mm 0 W/m2
02:32 16.8 °C 13.1 °C 1010.5 hPa Calm     79% 0.0 mm 0 W/m2
02:37 16.7 °C 13.2 °C 1010.5 hPa Calm     80% 0.0 mm 0 W/m2
02:42 16.7 °C 13.2 °C 1010.5 hPa Calm     80% 0.0 mm 0 W/m2
02:47 16.7 °C 13.2 °C 1010.2 hPa Calm     80% 0.0 mm 0 W/m2
02:52 16.6 °C 13.1 °C 1010.5 hPa Calm     80% 0.0 mm 0 W/m2
02:57 16.6 °C 13.3 °C 1010.5 hPa Calm     81% 0.0 mm 0 W/m2
03:02 16.6 °C 13.3 °C 1010.5 hPa Calm     81% 0.0 mm 0 W/m2
03:07 16.5 °C 13.2 °C 1010.5 hPa Calm     81% 0.0 mm 0 W/m2
03:12 16.4 °C 13.1 °C 1010.5 hPa Calm     81% 0.0 mm 0 W/m2
03:17 16.4 °C 13.1 °C 1010.2 hPa Calm     81% 0.0 mm 0 W/m2
03:22 16.3 °C 13.2 °C 1010.5 hPa Calm     82% 0.0 mm 0 W/m2
03:28 16.3 °C 13.2 °C 1010.5 hPa Calm     82% 0.0 mm 0 W/m2
03:33 16.2 °C 13.1 °C 1010.5 hPa Calm     82% 0.0 mm 0 W/m2
03:38 16.1 °C 13 °C 1010.5 hPa Calm     82% 0.0 mm 0 W/m2
03:43 16.1 °C 13.2 °C 1010.5 hPa Calm     83% 0.0 mm 0 W/m2
03:48 15.9 °C 13 °C 1010.5 hPa Calm     83% 0.0 mm 0 W/m2
03:53 15.9 °C 13 °C 1010.5 hPa Calm     83% 0.0 mm 0 W/m2
03:58 15.8 °C 12.9 °C 1010.2 hPa Calm     83% 0.0 mm 0 W/m2
04:03 15.7 °C 13 °C 1010.5 hPa Calm     84% 0.0 mm 0 W/m2
04:08 15.6 °C 12.9 °C 1010.2 hPa Calm     84% 0.0 mm 0 W/m2
04:13 15.6 °C 12.9 °C 1010.2 hPa Calm     84% 0.0 mm 0 W/m2
04:18 15.4 °C 12.9 °C 1010.2 hPa Calm     85% 0.0 mm 0 W/m2
04:23 15.4 °C 12.9 °C 1010.2 hPa Calm     85% 0.0 mm 0 W/m2
04:28 15.4 °C 12.9 °C 1010.2 hPa Calm     85% 0.0 mm 0 W/m2
04:33 15.3 °C 12.8 °C 1010.5 hPa Calm     85% 0.0 mm 0 W/m2
04:38 15.3 °C 12.8 °C 1010.5 hPa Calm     85% 0.0 mm 0 W/m2
04:43 15.2 °C 12.7 °C 1010.5 hPa Calm     85% 0.0 mm 0 W/m2
04:48 15.2 °C 12.7 °C 1010.2 hPa Calm     85% 0.0 mm 0 W/m2
04:53 15.1 °C 12.6 °C 1010.2 hPa Calm     85% 0.0 mm 0 W/m2
04:58 15.1 °C 12.6 °C 1010.2 hPa Calm     85% 0.0 mm 0 W/m2
05:03 15.1 °C 12.8 °C 1010.5 hPa Calm     86% 0.0 mm 0 W/m2
05:08 15.1 °C 12.8 °C 1010.2 hPa Calm     86% 0.0 mm 0 W/m2
05:13 15 °C 12.7 °C 1010.2 hPa Calm     86% 0.0 mm 0 W/m2
05:18 14.9 °C 12.6 °C 1010.2 hPa Calm     86% 0.0 mm 0 W/m2
05:23 14.9 °C 12.6 °C 1010.2 hPa Calm     86% 0.0 mm 0 W/m2
05:28 14.8 °C 12.7 °C 1010.2 hPa Calm     87% 0.0 mm 0 W/m2
05:33 14.8 °C 12.7 °C 1010.2 hPa Calm     87% 0.0 mm 0 W/m2
05:38 14.7 °C 12.6 °C 1010.2 hPa Calm     87% 0.0 mm 5 W/m2
05:43 14.7 °C 12.6 °C 1010.2 hPa Calm     87% 0.0 mm 7 W/m2
05:48 14.6 °C 12.5 °C 1010.2 hPa Calm     87% 0.0 mm 9 W/m2
05:53 14.6 °C 12.5 °C 1010.2 hPa Calm     87% 0.0 mm 11 W/m2
05:58 14.6 °C 12.5 °C 1010.2 hPa Calm     87% 0.0 mm 12 W/m2
06:03 14.5 °C 12.5 °C 1010.2 hPa Calm     88% 0.0 mm 14 W/m2
06:08 14.5 °C 12.5 °C 1010.2 hPa Calm     88% 0.0 mm 16 W/m2
06:13 14.5 °C 12.5 °C 1010.2 hPa Calm     88% 0.0 mm 18 W/m2
06:18 14.5 °C 12.5 °C 1009.8 hPa Calm     88% 0.0 mm 21 W/m2
06:23 14.6 °C 12.6 °C 1009.8 hPa Calm     88% 0.0 mm 21 W/m2
06:28 14.6 °C 12.6 °C 1009.8 hPa Calm     88% 0.0 mm 23 W/m2
06:33 14.6 °C 12.6 °C 1009.8 hPa Calm     88% 0.0 mm 25 W/m2
06:38 14.7 °C 12.7 °C 1009.8 hPa Calm     88% 0.0 mm 26 W/m2
06:43 14.8 °C 12.8 °C 1009.8 hPa Calm     88% 0.0 mm 28 W/m2
06:48 14.9 °C 12.8 °C 1009.8 hPa Calm     87% 0.0 mm 28 W/m2
06:53 15.2 °C 12.9 °C 1009.8 hPa Calm     86% 0.0 mm 32 W/m2
06:58 15.4 °C 13.1 °C 1010.2 hPa Calm     86% 0.0 mm 33 W/m2
07:03 15.7 °C 13.2 °C 1009.8 hPa Calm     85% 0.0 mm 37 W/m2
07:08 16 °C 13.3 °C 1009.8 hPa Calm     84% 0.0 mm 40 W/m2
07:13 16.2 °C 13.5 °C 1009.8 hPa Calm     84% 0.0 mm 44 W/m2
07:18 16.3 °C 13.4 °C 1009.8 hPa Calm     83% 0.0 mm 47 W/m2
07:23 16.6 °C 13.7 °C 1009.8 hPa Calm     83% 0.0 mm 169 W/m2
07:28 16.8 °C 13.9 °C 1009.8 hPa Calm     83% 0.0 mm 162 W/m2
07:33 17.2 °C 14.1 °C 1009.8 hPa Calm     82% 0.0 mm 165 W/m2
07:38 17.6 °C 14.3 °C 1009.8 hPa Calm     81% 0.0 mm 206 W/m2
07:43 18.2 °C 14.7 °C 1009.8 hPa Calm     80% 0.0 mm 221 W/m2
07:48 18.6 °C 14.7 °C 1009.8 hPa Calm     78% 0.0 mm 255 W/m2
07:53 19.1 °C 15 °C 1009.8 hPa Calm     77% 0.0 mm 255 W/m2
07:58 19.6 °C 15 °C 1009.8 hPa Calm     75% 0.0 mm 260 W/m2
08:03 19.9 °C 15.1 °C 1009.8 hPa Calm   1.6 km/h 74% 0.0 mm 232 W/m2
08:08 20.2 °C 15 °C 1010.2 hPa Calm   3.2 km/h 72% 0.0 mm 185 W/m2
08:13 20.3 °C 15.1 °C 1010.2 hPa NNE 3.2 km/h 4.8 km/h 72% 0.0 mm 200 W/m2
08:18 20.2 °C 15.2 °C 1010.2 hPa NNE 1.4 km/h 3.2 km/h 73% 0.0 mm 167 W/m2
08:23 20.1 °C 15.1 °C 1010.2 hPa Calm     73% 0.0 mm 174 W/m2
08:28 20.1 °C 14.7 °C 1010.2 hPa Calm   3.2 km/h 71% 0.0 mm 148 W/m2
08:33 20.1 °C 14.5 °C 1010.2 hPa Calm   1.6 km/h 70% 0.0 mm 141 W/m2
08:38 20.2 °C 14.6 °C 1010.2 hPa NE 1.4 km/h 3.2 km/h 70% 0.0 mm 125 W/m2
08:43 20.2 °C 14.6 °C 1010.2 hPa Calm     70% 0.0 mm 127 W/m2
08:48 20.3 °C 14.9 °C 1010.2 hPa Calm     71% 0.0 mm 137 W/m2
08:53 20.4 °C 14.7 °C 1010.2 hPa Calm   1.6 km/h 70% 0.0 mm 146 W/m2
08:58 20.6 °C 14.9 °C 1010.2 hPa Calm     70% 0.0 mm 153 W/m2
09:03 20.8 °C 14.9 °C 1010.2 hPa Calm   3.2 km/h 69% 0.0 mm 153 W/m2
09:08 21.1 °C 15.2 °C 1010.2 hPa Calm   3.2 km/h 69% 0.0 mm 151 W/m2
09:13 21.3 °C 15.4 °C 1010.2 hPa Calm     69% 0.0 mm 142 W/m2
09:18 21.8 °C 15.4 °C 1010.2 hPa NE 1.4 km/h 1.6 km/h 67% 0.0 mm 132 W/m2
09:23 22.2 °C 15.3 °C 1010.2 hPa NNE 1.4 km/h 3.2 km/h 65% 0.0 mm 114 W/m2
09:28 22.3 °C 15.6 °C 1010.2 hPa Calm   1.6 km/h 66% 0.0 mm 102 W/m2
09:33 22.4 °C 15.7 °C 1010.2 hPa West 1.4 km/h 4.8 km/h 66% 0.0 mm 97 W/m2
09:38 22.6 °C 15.9 °C 1010.2 hPa Calm     66% 0.0 mm 95 W/m2
09:43 23 °C 16.1 °C 1010.2 hPa SW 1.4 km/h 3.2 km/h 65% 0.0 mm 93 W/m2
09:48 23.3 °C 16.6 °C 1009.8 hPa East 3.2 km/h 3.2 km/h 66% 0.0 mm 95 W/m2
09:53 23.6 °C 16.6 °C 1009.8 hPa NNW 3.2 km/h 3.2 km/h 65% 0.0 mm 155 W/m2
09:58 23.8 °C 16.6 °C 1009.8 hPa WSW 1.4 km/h 3.2 km/h 64% 0.0 mm 353 W/m2
10:03 23.9 °C 16.2 °C 1009.8 hPa Calm   3.2 km/h 62% 0.0 mm 563 W/m2
10:08 24.1 °C 16.4 °C 1009.8 hPa North 4.7 km/h 6.4 km/h 62% 0.0 mm 575 W/m2
10:13 24.1 °C 16.1 °C 1009.8 hPa North 1.4 km/h 4.8 km/h 61% 0.0 mm 499 W/m2
10:18 24 °C 16 °C 1009.8 hPa NW 4.7 km/h 11.3 km/h 61% 0.0 mm 90 W/m2
10:23 24 °C 16.3 °C 1009.8 hPa WNW 3.2 km/h 11.3 km/h 62% 0.0 mm 612 W/m2
10:28 24.1 °C 16.6 °C 1009.8 hPa WNW 7.9 km/h 8 km/h 63% 0.0 mm 603 W/m2
10:33 24.2 °C 16.5 °C 1009.5 hPa WSW 6.4 km/h 11.3 km/h 62% 0.0 mm 643 W/m2
10:38 24.2 °C 16.5 °C 1009.5 hPa NNW 1.4 km/h 6.4 km/h 62% 0.0 mm 652 W/m2
10:43 24.5 °C 16.5 °C 1009.5 hPa WNW 4.7 km/h 11.3 km/h 61% 0.0 mm 661 W/m2
10:48 24.6 °C 16.3 °C 1009.5 hPa West 6.4 km/h 12.9 km/h 60% 0.0 mm 671 W/m2
10:53 24.7 °C 16.4 °C 1009.5 hPa WNW 4.7 km/h 6.4 km/h 60% 0.0 mm 696 W/m2
10:58 24.8 °C 16.2 °C 1009.5 hPa WNW 6.4 km/h 12.9 km/h 59% 0.0 mm 728 W/m2
11:03 24.9 °C 16.3 °C 1009.5 hPa West 4.7 km/h 6.4 km/h 59% 0.0 mm 708 W/m2
11:08 24.9 °C 16.1 °C 1009.5 hPa ENE 1.4 km/h 3.2 km/h 58% 0.0 mm 708 W/m2
11:13 25.1 °C 15.7 °C 1009.1 hPa WNW 1.4 km/h 11.3 km/h 56% 0.0 mm 740 W/m2
11:18 25.2 °C 15.8 °C 1009.1 hPa West 3.2 km/h 9.7 km/h 56% 0.0 mm 780 W/m2
11:23 25.2 °C 15.8 °C 1009.1 hPa NNW 3.2 km/h 11.3 km/h 56% 0.0 mm 780 W/m2
11:28 25.4 °C 16 °C 1009.1 hPa WNW 6.4 km/h 8 km/h 56% 0.0 mm 527 W/m2
11:33 25.6 °C 16.2 °C 1009.1 hPa West 3.2 km/h 6.4 km/h 56% 0.0 mm 487 W/m2
11:38 25.4 °C 16 °C 1009.1 hPa West 4.7 km/h 6.4 km/h 56% 0.0 mm 475 W/m2
11:43 25.4 °C 16 °C 1009.1 hPa WNW 6.4 km/h 11.3 km/h 56% 0.0 mm 446 W/m2
11:48 25.4 °C 16 °C 1009.1 hPa SW 4.7 km/h 6.4 km/h 56% 0.0 mm 473 W/m2
11:53 25.4 °C 16.3 °C 1009.1 hPa WNW 6.4 km/h 12.9 km/h 57% 0.0 mm 466 W/m2
11:58 25.3 °C 16.2 °C 1009.1 hPa WNW 9.7 km/h 9.7 km/h 57% 0.0 mm 909 W/m2
12:03 25.7 °C 16.5 °C 1009.1 hPa West 3.2 km/h 12.9 km/h 57% 0.0 mm 1048 W/m2
12:08 25.9 °C 15.9 °C 1009.1 hPa NNW 3.2 km/h 8 km/h 54% 0.0 mm 652 W/m2
12:13 26 °C 16.3 °C 1009.1 hPa NNW 4.7 km/h 12.9 km/h 55% 0.0 mm 392 W/m2
12:18 26 °C 16.3 °C 1009.1 hPa NW 1.4 km/h 6.4 km/h 55% 0.0 mm 622 W/m2
12:23 26 °C 16.3 °C 1009.1 hPa North 6.4 km/h 6.4 km/h 55% 0.0 mm 411 W/m2
12:28 26 °C 16.3 °C 1009.1 hPa WNW 4.7 km/h 9.7 km/h 55% 0.0 mm 483 W/m2
12:33 25.9 °C 16.2 °C 1009.1 hPa West 4.7 km/h 11.3 km/h 55% 0.0 mm 503 W/m2
12:38 26.2 °C 16.7 °C 1008.8 hPa WNW 3.2 km/h 8 km/h 56% 0.0 mm 1123 W/m2
12:43 26.4 °C 16.6 °C 1008.8 hPa West 4.7 km/h 11.3 km/h 55% 0.0 mm 476 W/m2
12:48 26.5 °C 16.4 °C 1008.8 hPa WNW 3.2 km/h 6.4 km/h 54% 0.0 mm 485 W/m2
12:53 26.3 °C 16.5 °C 1008.8 hPa WNW 1.4 km/h 8 km/h 55% 0.0 mm 364 W/m2
12:58 26.2 °C 16.4 °C 1008.8 hPa Calm   9.7 km/h 55% 0.0 mm 487 W/m2
13:03 26.2 °C 16.2 °C 1008.8 hPa WNW 1.4 km/h 8 km/h 54% 0.0 mm 457 W/m2
13:08 26.3 °C 16.5 °C 1008.8 hPa WNW 1.4 km/h 1.6 km/h 55% 0.0 mm 689 W/m2
13:13 26.4 °C 16.3 °C 1008.5 hPa NNW 1.4 km/h 4.8 km/h 54% 0.0 mm 1099 W/m2
13:18 26.8 °C 16.7 °C 1008.5 hPa Calm   4.8 km/h 54% 0.0 mm 628 W/m2
13:23 27 °C 16 °C 1008.5 hPa NW 1.4 km/h 4.8 km/h 51% 0.0 mm 575 W/m2
13:28 27.2 °C 15.6 °C 1008.5 hPa South 1.4 km/h 6.4 km/h 49% 0.0 mm 900 W/m2
13:33 27.4 °C 15.7 °C 1008.5 hPa East 9.7 km/h 9.7 km/h 49% 0.0 mm 889 W/m2
13:38 27.6 °C 15.9 °C 1008.5 hPa NNW 1.4 km/h 3.2 km/h 49% 0.0 mm 902 W/m2
13:43 27.8 °C 16.4 °C 1008.5 hPa NNW 1.4 km/h 4.8 km/h 50% 0.0 mm 807 W/m2
13:48 28 °C 16 °C 1008.1 hPa ENE 1.4 km/h 3.2 km/h 48% 0.0 mm 353 W/m2
13:53 28.1 °C 16.7 °C 1008.1 hPa WSW 3.2 km/h 4.8 km/h 50% 0.0 mm 387 W/m2
13:58 28.2 °C 15.8 °C 1008.1 hPa West 1.4 km/h 3.2 km/h 47% 0.0 mm 385 W/m2
14:03 28.1 °C 16.1 °C 1008.1 hPa SSW 1.4 km/h 3.2 km/h 48% 0.0 mm 343 W/m2
14:08 28 °C 15.6 °C 1008.1 hPa Calm   4.8 km/h 47% 0.0 mm 332 W/m2
14:13 27.9 °C 15.5 °C 1008.1 hPa West 1.4 km/h 6.4 km/h 47% 0.0 mm 352 W/m2
14:18 27.9 °C 16.2 °C 1008.1 hPa Calm     49% 0.0 mm 385 W/m2
14:23 28.1 °C 15.7 °C 1008.1 hPa East 4.7 km/h 11.3 km/h 47% 0.0 mm 385 W/m2
14:28 28 °C 16.3 °C 1008.1 hPa Calm   11.3 km/h 49% 0.0 mm 334 W/m2
14:33 27.9 °C 16.2 °C 1008.1 hPa Calm   3.2 km/h 49% 0.0 mm 336 W/m2
14:39 27.9 °C 17.1 °C 1007.8 hPa ESE 1.4 km/h 11.3 km/h 52% 0.0 mm 338 W/m2
14:44 27.9 °C 17.1 °C 1008.1 hPa WNW 17.7 km/h 20.9 km/h 52% 0.0 mm 394 W/m2
14:49 26.9 °C 17.7 °C 1008.1 hPa NW 20.9 km/h 22.5 km/h 57% 0.0 mm 436 W/m2
14:54 26.1 °C 17.7 °C 1008.1 hPa WNW 4.7 km/h 17.7 km/h 60% 0.0 mm 601 W/m2
14:59 25.9 °C 17.8 °C 1008.1 hPa WNW 6.4 km/h 22.5 km/h 61% 0.0 mm 520 W/m2
15:04 25.8 °C 17.4 °C 1008.1 hPa West 14.3 km/h 22.5 km/h 60% 0.0 mm 548 W/m2
15:09 25.6 °C 17.5 °C 1008.1 hPa WSW 9.7 km/h 17.7 km/h 61% 0.0 mm 418 W/m2
15:14 25.3 °C 17.7 °C 1008.1 hPa SSW 9.7 km/h 22.5 km/h 63% 0.0 mm 399 W/m2
15:19 25 °C 17.5 °C 1008.1 hPa West 4.7 km/h 11.3 km/h 63% 0.0 mm 461 W/m2
15:24 24.7 °C 17.4 °C 1008.5 hPa WSW 13 km/h 20.9 km/h 64% 0.0 mm 422 W/m2
15:29 24.3 °C 17.3 °C 1008.1 hPa West 14.3 km/h 20.9 km/h 65% 0.0 mm 436 W/m2
15:34 24.4 °C 17.6 °C 1008.5 hPa WNW 16.3 km/h 22.5 km/h 66% 0.0 mm 313 W/m2
15:39 24.1 °C 17.1 °C 1008.5 hPa WNW 19.5 km/h 27.4 km/h 65% 0.0 mm 350 W/m2
15:44 23.8 °C 17.1 °C 1008.5 hPa WNW 14.3 km/h 30.6 km/h 66% 0.0 mm 605 W/m2
15:49 23.7 °C 17.2 °C 1008.8 hPa West 11.1 km/h 24.1 km/h 67% 0.0 mm 302 W/m2
15:54 23.6 °C 17.3 °C 1008.8 hPa West 9.7 km/h 19.3 km/h 68% 0.0 mm 427 W/m2
15:59 23.3 °C 17.3 °C 1008.8 hPa WNW 13 km/h 25.7 km/h 69% 0.0 mm 791 W/m2
16:04 23.4 °C 17.2 °C 1008.8 hPa WSW 16.3 km/h 29 km/h 68% 0.0 mm 751 W/m2
16:09 23.2 °C 17.2 °C 1008.8 hPa West 13 km/h 27.4 km/h 69% 0.0 mm 352 W/m2
16:14 23.1 °C 17.1 °C 1008.8 hPa West 17.7 km/h 22.5 km/h 69% 0.0 mm 301 W/m2
16:19 23 °C 16.8 °C 1008.8 hPa West 14.3 km/h 25.7 km/h 68% 0.0 mm 735 W/m2
16:24 22.6 °C 16.8 °C 1009.1 hPa WNW 16.3 km/h 30.6 km/h 70% 0.0 mm 345 W/m2
16:29 21.6 °C 16.3 °C 1009.1 hPa NW 22.7 km/h 27.4 km/h 72% 0.0 mm 288 W/m2
16:34 20.7 °C 15.9 °C 1009.1 hPa WSW 11.1 km/h 43.5 km/h 74% 0.0 mm 271 W/m2
16:39 20.1 °C 15.7 °C 1009.1 hPa West 16.3 km/h 35.4 km/h 76% 0.0 mm 417 W/m2
16:44 19.8 °C 15.4 °C 1009.1 hPa WNW 24.1 km/h 41.8 km/h 76% 0.0 mm 279 W/m2
16:49 19.3 °C 15 °C 1009.5 hPa North 25.9 km/h 32.2 km/h 76% 0.0 mm 163 W/m2
16:54 18.8 °C 14.7 °C 1009.8 hPa West 24.1 km/h 24.1 km/h 77% 0.0 mm 132 W/m2
16:59 17.8 °C 13.9 °C 1009.8 hPa WNW 19.5 km/h 46.7 km/h 78% 0.0 mm 118 W/m2
17:04 17.2 °C 13.5 °C 1009.8 hPa West 19.5 km/h 37 km/h 79% 0.0 mm 139 W/m2
17:09 16.6 °C 13.1 °C 1009.8 hPa West 14.3 km/h 45.1 km/h 80% 0.0 mm 139 W/m2
17:14 16.1 °C 13 °C 1010.2 hPa West 20.9 km/h 37 km/h 82% 0.0 mm 169 W/m2
17:19 16 °C 12.9 °C 1010.2 hPa West 11.1 km/h 33.8 km/h 82% 0.0 mm 262 W/m2
17:24 16.1 °C 13.2 °C 1010.2 hPa WNW 14.3 km/h 30.6 km/h 83% 0.0 mm 274 W/m2
17:29 16.1 °C 13 °C 1010.2 hPa West 13 km/h 29 km/h 82% 0.0 mm 234 W/m2
17:34 16.1 °C 13 °C 1010.2 hPa WSW 24.1 km/h 35.4 km/h 82% 0.0 mm 221 W/m2
17:39 16.1 °C 13 °C 1010.5 hPa NW 33.8 km/h 38.6 km/h 82% 0.0 mm 188 W/m2
17:44 16 °C 12.9 °C 1010.8 hPa WNW 13 km/h 30.6 km/h 82% 0.0 mm 171 W/m2
17:49 16.1 °C 12.8 °C 1010.8 hPa WNW 14.3 km/h 38.6 km/h 81% 0.0 mm 149 W/m2
17:54 16.2 °C 12.9 °C 1010.8 hPa West 16.3 km/h 27.4 km/h 81% 0.0 mm 130 W/m2
17:59 16.2 °C 12.7 °C 1011.2 hPa WSW 24.1 km/h 27.4 km/h 80% 0.0 mm 148 W/m2
18:04 16.3 °C 12.8 °C 1011.2 hPa West 13 km/h 24.1 km/h 80% 0.0 mm 169 W/m2
18:09 16.4 °C 12.9 °C 1011.5 hPa WSW 16.3 km/h 16.1 km/h 80% 0.0 mm 118 W/m2
18:14 16.5 °C 12.8 °C 1011.9 hPa NW 7.9 km/h 19.3 km/h 79% 0.0 mm 130 W/m2
18:19 16.8 °C 12.9 °C 1011.9 hPa NW 4.7 km/h 14.5 km/h 78% 0.0 mm 127 W/m2
18:24 16.9 °C 12.8 °C 1012.2 hPa West 19.5 km/h 30.6 km/h 77% 0.0 mm 120 W/m2
18:29 16.9 °C 12.2 °C 1011.9 hPa NW 17.7 km/h 27.4 km/h 74% 0.0 mm 109 W/m2
18:34 16.9 °C 12 °C 1011.9 hPa WSW 14.3 km/h 30.6 km/h 73% 0.0 mm 190 W/m2
18:39 16.9 °C 12 °C 1011.5 hPa West 4.7 km/h 12.9 km/h 73% 0.0 mm 174 W/m2
18:44 17.1 °C 12.2 °C 1011.9 hPa NNW 7.9 km/h 17.7 km/h 73% 0.0 mm 311 W/m2
18:49 17.3 °C 12.2 °C 1011.9 hPa WSW 11.1 km/h 19.3 km/h 72% 0.0 mm 155 W/m2
18:54 17.2 °C 12.1 °C 1011.9 hPa West 11.1 km/h 17.7 km/h 72% 0.0 mm 135 W/m2
18:59 17.2 °C 12.1 °C 1012.2 hPa WSW 19.5 km/h 22.5 km/h 72% 0.0 mm 171 W/m2
19:04 17 °C 12.1 °C 1012.2 hPa WNW 16.3 km/h 16.1 km/h 73% 0.0 mm 114 W/m2
19:09 16.9 °C 12 °C 1012.2 hPa WSW 14.3 km/h 22.5 km/h 73% 0.0 mm 100 W/m2
19:14 16.8 °C 11.7 °C 1012.2 hPa WNW 17.7 km/h 22.5 km/h 72% 0.0 mm 72 W/m2
19:19 16.6 °C 11.7 °C 1012.5 hPa WSW 7.9 km/h 16.1 km/h 73% 0.0 mm 40 W/m2
19:24 16.5 °C 11.8 °C 1013.2 hPa WSW 16.3 km/h 22.5 km/h 74% 0.0 mm 16 W/m2
19:29 16.3 °C 11.9 °C 1012.2 hPa North 3.2 km/h 16.1 km/h 75% 0.0 mm 28 W/m2
19:34 16 °C 12.2 °C 1012.2 hPa WSW 4.7 km/h 16.1 km/h 78% 0.0 mm 65 W/m2
19:39 15.6 °C 12.5 °C 1012.2 hPa West 9.7 km/h 11.3 km/h 82% 0.2 mm 54 W/m2
19:44 15.2 °C 12.3 °C 1012.2 hPa West 4.7 km/h 9.7 km/h 83% 0.2 mm 25 W/m2
19:49 15 °C 12.3 °C 1012.5 hPa West 3.2 km/h 6.4 km/h 84% 0.2 mm 18 W/m2
19:54 14.8 °C 12.3 °C 1012.2 hPa NW 4.7 km/h 11.3 km/h 85% 0.5 mm 28 W/m2
19:59 14.7 °C 12.4 °C 1011.9 hPa WNW 3.2 km/h 4.8 km/h 86% 1.0 mm 37 W/m2
20:04 14.6 °C 12.5 °C 1011.9 hPa West 3.2 km/h 6.4 km/h 87% 1.0 mm 67 W/m2
20:09 14.5 °C 12.4 °C 1012.2 hPa West 4.7 km/h 6.4 km/h 87% 1.0 mm 63 W/m2
20:14 14.4 °C 12.3 °C 1012.9 hPa WSW 7.9 km/h 9.7 km/h 87% 1.0 mm 47 W/m2
20:19 14.4 °C 12.1 °C 1012.9 hPa West 3.2 km/h 8 km/h 86% 1.0 mm 30 W/m2
20:24 14.5 °C 12.4 °C 1012.9 hPa WSW 3.2 km/h 4.8 km/h 87% 1.0 mm 28 W/m2
20:29 14.5 °C 12.5 °C 1012.9 hPa WNW 1.4 km/h 4.8 km/h 88% 1.0 mm 25 W/m2
20:34 14.4 °C 12.4 °C 1012.9 hPa WSW 6.4 km/h 9.7 km/h 88% 1.0 mm 25 W/m2
20:39 14.4 °C 12.4 °C 1013.2 hPa WSW 3.2 km/h 4.8 km/h 88% 0.8 mm 16 W/m2
20:44 14.3 °C 12.2 °C 1013.2 hPa West 6.4 km/h 11.3 km/h 87% 0.8 mm 12 W/m2
20:49 14.3 °C 12.2 °C 1013.2 hPa WSW 3.2 km/h 8 km/h 87% 0.8 mm 12 W/m2
20:54 14.2 °C 12.1 °C 1013.2 hPa WSW 7.9 km/h 8 km/h 87% 0.5 mm 12 W/m2
20:59 14.1 °C 12 °C 1013.5 hPa WNW 4.7 km/h 11.3 km/h 87% 0.2 mm 11 W/m2
21:04 14 °C 12 °C 1013.5 hPa WSW 4.7 km/h 4.8 km/h 88% 0.2 mm 7 W/m2
21:09 13.9 °C 11.9 °C 1013.5 hPa WSW 11.1 km/h 11.3 km/h 88% 0.2 mm 7 W/m2
21:14 13.8 °C 11.8 °C 1013.5 hPa West 3.2 km/h 6.4 km/h 88% 0.5 mm 9 W/m2
21:19 13.7 °C 11.9 °C 1013.5 hPa West 1.4 km/h 11.3 km/h 89% 0.5 mm 7 W/m2
21:24 13.7 °C 11.9 °C 1013.5 hPa West 9.7 km/h 9.7 km/h 89% 0.5 mm 5 W/m2
21:29 13.6 °C 12 °C 1013.5 hPa WSW 6.4 km/h 9.7 km/h 90% 0.5 mm 0 W/m2
21:34 13.6 °C 12 °C 1013.9 hPa West 6.4 km/h 11.3 km/h 90% 0.5 mm 0 W/m2
21:39 13.5 °C 11.9 °C 1014.2 hPa WSW 4.7 km/h 11.3 km/h 90% 0.5 mm 0 W/m2
21:44 13.4 °C 11.8 °C 1014.2 hPa NW 4.7 km/h 9.7 km/h 90% 0.5 mm 0 W/m2
21:49 13.4 °C 12 °C 1014.6 hPa West 3.2 km/h 4.8 km/h 91% 0.5 mm 0 W/m2
21:54 13.4 °C 12 °C 1014.6 hPa West 6.4 km/h 6.4 km/h 91% 0.5 mm 0 W/m2
21:59 13.4 °C 12 °C 1014.2 hPa WSW 4.7 km/h 12.9 km/h 91% 0.5 mm 0 W/m2
22:04 13.5 °C 12.2 °C 1014.2 hPa WNW 4.7 km/h 12.9 km/h 92% 0.5 mm 0 W/m2
22:09 13.5 °C 12.1 °C 1014.6 hPa West 9.7 km/h 12.9 km/h 91% 0.5 mm 0 W/m2
22:14 13.4 °C 12 °C 1014.6 hPa WNW 7.9 km/h 8 km/h 91% 0.5 mm 0 W/m2
22:19 13.4 °C 12.1 °C 1014.6 hPa West 6.4 km/h 6.4 km/h 92% 0.5 mm 0 W/m2
22:24 13.4 °C 12.1 °C 1014.9 hPa WSW 4.7 km/h 6.4 km/h 92% 0.5 mm 0 W/m2
22:29 13.4 °C 12.1 °C 1015.2 hPa West 4.7 km/h 11.3 km/h 92% 0.5 mm 0 W/m2
22:34 13.4 °C 12.1 °C 1015.6 hPa West 4.7 km/h 6.4 km/h 92% 0.5 mm 0 W/m2
22:39 13.4 °C 12.1 °C 1015.6 hPa West 3.2 km/h 6.4 km/h 92% 0.5 mm 0 W/m2
22:44 13.4 °C 12.1 °C 1015.6 hPa Calm   6.4 km/h 92% 0.5 mm 0 W/m2
22:49 13.4 °C 12.1 °C 1015.6 hPa NW 1.4 km/h 6.4 km/h 92% 0.5 mm 0 W/m2
22:54 13.4 °C 12.1 °C 1015.2 hPa Calm   4.8 km/h 92% 0.5 mm 0 W/m2
22:59 13.4 °C 12.1 °C 1015.2 hPa WSW 1.4 km/h 4.8 km/h 92% 0.2 mm 0 W/m2
23:04 13.3 °C 11.9 °C 1015.6 hPa West 3.2 km/h 11.3 km/h 91% 0.2 mm 0 W/m2
23:10 13.3 °C 12 °C 1015.6 hPa West 6.4 km/h 6.4 km/h 92% 0.2 mm 0 W/m2
23:15 13.3 °C 12 °C 1015.6 hPa West 3.2 km/h 4.8 km/h 92% 0.2 mm 0 W/m2
23:20 13.3 °C 12 °C 1015.6 hPa WSW 3.2 km/h 4.8 km/h 92% 0.0 mm 0 W/m2
23:25 13.3 °C 12 °C 1015.9 hPa SW 3.2 km/h 3.2 km/h 92% 0.0 mm 0 W/m2
23:30 13.3 °C 12 °C 1015.6 hPa SW 1.4 km/h 1.6 km/h 92% 0.0 mm 0 W/m2
23:35 13.3 °C 12 °C 1015.6 hPa WNW 1.4 km/h 6.4 km/h 92% 0.0 mm 0 W/m2
23:40 13.2 °C 11.9 °C 1015.6 hPa WNW 1.4 km/h 3.2 km/h 92% 0.0 mm 0 W/m2
23:45 13.2 °C 11.9 °C 1015.6 hPa West 3.2 km/h 4.8 km/h 92% 0.0 mm 0 W/m2
23:50 13.2 °C 11.9 °C 1015.6 hPa West 1.4 km/h 3.2 km/h 92% 0.0 mm 0 W/m2
23:55 13.2 °C 11.9 °C 1015.6 hPa WNW 1.4 km/h 3.2 km/h 92% 0.0 mm 0 W/m2
Juneau County Weather
Compliments of Weather Underground - 4 mb